Time;durP1;ratioP1;P1;durP2;ratioP2;P2;SDS_P1;SDS_P2;PMS_P1;PMS_P2;Temp;Humidity;BMP_temperature;BMP_pressure;BME280_temperature;BME280_humidity;BME280_pressure;Samples;Min_cycle;Max_cycle;Signal;HPM_P1;HPM_P2
2022/06/15 00:02:17;;;;;;;;;;;19.60;50.20;;;;;;5162923;27;20138;-46
2022/06/15 00:04:43;;;;;;;;;;;20.70;50.00;;;;;;5162686;27;19934;-45
2022/06/15 00:07:09;;;;;;;;;;;21.70;47.80;;;;;;5168197;27;19934;-45
2022/06/15 00:09:35;;;;;;;;;;;20.90;48.40;;;;;;5160874;27;19979;-44
2022/06/15 00:12:02;;;;;;;;;;;20.00;49.50;;;;;;5166940;27;20425;-50
2022/06/15 00:14:28;;;;;;;;;;;19.80;49.40;;;;;;5162084;27;19922;-48
2022/06/15 00:16:54;;;;;;;;;;;20.10;50.90;;;;;;5162348;27;20435;-50
2022/06/15 00:19:20;;;;;;;;;;;21.30;48.90;;;;;;5168008;27;19929;-44
2022/06/15 00:21:46;;;;;;;;;;;21.60;47.50;;;;;;5162582;27;19927;-46
2022/06/15 00:24:11;;;;;;;;;;;20.30;49.10;;;;;;5162451;27;20410;-45
2022/06/15 00:26:38;;;;;;;;;;;19.90;49.50;;;;;;5167147;27;19953;-49
2022/06/15 00:29:04;;;;;;;;;;;19.60;49.30;;;;;;5160568;27;19922;-47
2022/06/15 00:31:30;;;;;;;;;;;20.40;50.90;;;;;;5167233;27;19979;-46
2022/06/15 00:33:56;;;;;;;;;;;21.50;48.40;;;;;;5162334;27;20408;-46
2022/06/15 00:36:21;;;;;;;;;;;21.20;48.20;;;;;;5162551;27;19931;-47
2022/06/15 00:38:48;;;;;;;;;;;20.10;49.60;;;;;;5167934;27;19946;-46
2022/06/15 00:41:18;;;;;;;;;;;19.80;49.60;;;;;;5162523;27;20429;-47
2022/06/15 00:43:45;;;;;;;;;;;20.40;51.00;;;;;;5162209;27;20043;-46
2022/06/15 00:46:11;;;;;;;;;;;21.50;48.50;;;;;;5165895;27;19929;-48
2022/06/15 00:48:37;;;;;;;;;;;21.30;48.20;;;;;;5161098;27;19923;-49
2022/06/15 00:51:03;;;;;;;;;;;20.10;49.70;;;;;;5164422;27;19938;-51
2022/06/15 00:53:29;;;;;;;;;;;19.70;49.70;;;;;;5165488;27;19930;-47
2022/06/15 00:55:54;;;;;;;;;;;20.10;51.10;;;;;;5162840;27;19952;-49
2022/06/15 00:58:20;;;;;;;;;;;21.20;49.40;;;;;;5171909;27;19950;-45
2022/06/15 01:00:48;;;;;;;;;;;21.60;47.90;;;;;;5166219;27;20362;-46
2022/06/15 01:03:14;;;;;;;;;;;20.50;49.20;;;;;;5165970;27;20014;-47
2022/06/15 01:05:55;;;;;;;;;;;19.90;49.60;;;;;;5148710;27;19930;-47
2022/06/15 01:08:36;;;;;;;;;;;19.60;49.60;;;;;;5146117;27;20430;-46
2022/06/15 01:11:06;;;;;;;;;;;20.60;50.70;;;;;;5146943;27;20028;-46
2022/06/15 01:13:37;;;;;;;;;;;21.70;48.30;;;;;;5171222;27;20022;-46
2022/06/15 01:16:07;;;;;;;;;;;20.80;48.90;;;;;;5165762;27;19929;-45
2022/06/15 01:18:55;;;;;;;;;;;20.00;49.90;;;;;;5165798;27;20465;-46
2022/06/15 01:21:22;;;;;;;;;;;19.80;49.50;;;;;;5171081;27;19934;-46
2022/06/15 01:24:06;;;;;;;;;;;20.50;51.10;;;;;;5127318;27;20207;-46
2022/06/15 01:26:38;;;;;;;;;;;21.50;48.80;;;;;;5164745;27;19958;-45
2022/06/15 01:29:16;;;;;;;;;;;21.00;48.50;;;;;;5170860;27;19933;-46
2022/06/15 01:31:48;;;;;;;;;;;20.00;50.10;;;;;;5165619;27;19927;-46
2022/06/15 01:34:34;;;;;;;;;;;19.80;49.40;;;;;;5165553;27;20030;-47
2022/06/15 01:37:00;;;;;;;;;;;19.90;50.90;;;;;;5150760;27;19927;-47
2022/06/15 01:39:41;;;;;;;;;;;21.10;50.00;;;;;;5165336;27;19950;-48
2022/06/15 01:42:09;;;;;;;;;;;21.70;48.20;;;;;;5143698;27;20021;-46
2022/06/15 01:44:37;;;;;;;;;;;20.30;50.00;;;;;;5151503;27;20068;-46
2022/06/15 01:47:04;;;;;;;;;;;19.80;49.70;;;;;;5146282;27;19923;-47
2022/06/15 01:49:40;;;;;;;;;;;20.50;51.30;;;;;;5165072;27;19926;-48
2022/06/15 01:52:06;;;;;;;;;;;21.50;48.80;;;;;;5152230;27;19971;-46
2022/06/15 01:54:32;;;;;;;;;;;21.00;48.80;;;;;;5146775;27;19926;-45
2022/06/15 01:56:58;;;;;;;;;;;20.10;49.90;;;;;;5144317;27;19949;-49
2022/06/15 01:59:26;;;;;;;;;;;19.80;49.70;;;;;;5150097;27;20212;-47
2022/06/15 02:01:55;;;;;;;;;;;19.90;51.10;;;;;;5163675;27;20014;-51
2022/06/15 02:04:26;;;;;;;;;;;20.90;50.50;;;;;;5169879;27;19929;-46
2022/06/15 02:07:11;;;;;;;;;;;21.80;48.10;;;;;;5164679;27;20426;-46
2022/06/15 02:09:44;;;;;;;;;;;20.40;49.70;;;;;;5164123;27;20013;-46
2022/06/15 02:12:10;;;;;;;;;;;19.80;49.90;;;;;;5151181;27;21230;-45
2022/06/15 02:14:38;;;;;;;;;;;20.00;50.80;;;;;;5145983;27;20025;-46
2022/06/15 02:17:12;;;;;;;;;;;20.90;50.60;;;;;;5145135;27;19923;-47
2022/06/15 02:19:39;;;;;;;;;;;21.80;48.40;;;;;;5149729;27;20133;-45
2022/06/15 02:22:06;;;;;;;;;;;20.50;49.60;;;;;;5145134;27;19922;-45
2022/06/15 02:24:32;;;;;;;;;;;19.90;50.10;;;;;;5145695;27;19929;-45
2022/06/15 02:26:58;;;;;;;;;;;19.80;49.80;;;;;;5151395;27;19923;-47
2022/06/15 02:29:24;;;;;;;;;;;20.00;51.60;;;;;;5146050;27;20366;-48
2022/06/15 02:31:53;;;;;;;;;;;21.00;50.50;;;;;;5145816;27;20429;-46
2022/06/15 02:34:19;;;;;;;;;;;21.60;48.40;;;;;;5151117;27;19927;-48
2022/06/15 02:36:44;;;;;;;;;;;20.40;49.80;;;;;;5161965;27;20279;-51
2022/06/15 02:39:10;;;;;;;;;;;19.90;50.00;;;;;;5168855;27;19942;-48
2022/06/15 02:41:36;;;;;;;;;;;19.70;49.70;;;;;;5163847;27;19923;-47
2022/06/15 02:44:02;;;;;;;;;;;20.30;51.90;;;;;;5164133;27;19927;-48
2022/06/15 02:46:29;;;;;;;;;;;21.30;50.00;;;;;;5169378;27;20109;-47
2022/06/15 02:48:55;;;;;;;;;;;21.50;48.60;;;;;;5145549;27;19930;-47
2022/06/15 02:51:24;;;;;;;;;;;20.30;50.00;;;;;;5163992;27;19998;-48
2022/06/15 02:53:50;;;;;;;;;;;19.80;50.00;;;;;;5149889;27;20220;-46
2022/06/15 02:56:17;;;;;;;;;;;20.00;51.70;;;;;;5143262;27;19966;-48
2022/06/15 02:58:44;;;;;;;;;;;20.90;50.80;;;;;;5148922;27;19974;-53
2022/06/15 03:01:09;;;;;;;;;;;21.80;48.50;;;;;;5147043;27;20446;-57
2022/06/15 03:03:35;;;;;;;;;;;21.80;48.10;;;;;;5163775;27;19926;-58
2022/06/15 03:06:01;;;;;;;;;;;21.90;47.70;;;;;;5169060;27;20378;-57
2022/06/15 03:08:27;;;;;;;;;;;21.90;47.50;;;;;;5163549;27;19971;-56
2022/06/15 03:10:53;;;;;;;;;;;22.00;47.30;;;;;;5143351;27;20459;-54
2022/06/15 03:13:19;;;;;;;;;;;21.90;47.20;;;;;;5166967;27;19923;-57
2022/06/15 03:15:45;;;;;;;;;;;21.90;47.10;;;;;;5162541;27;19929;-58
2022/06/15 03:18:11;;;;;;;;;;;21.90;47.10;;;;;;5164780;27;19927;-56
2022/06/15 03:20:36;;;;;;;;;;;21.90;46.80;;;;;;5144849;27;19958;-58
2022/06/15 03:23:02;;;;;;;;;;;22.00;46.80;;;;;;5163066;27;19927;-57
2022/06/15 03:25:28;;;;;;;;;;;22.00;46.50;;;;;;5168932;27;20663;-56
2022/06/15 03:27:54;;;;;;;;;;;22.00;46.50;;;;;;5163323;27;20166;-58
2022/06/15 03:30:20;;;;;;;;;;;22.00;46.50;;;;;;5162623;27;19930;-57
2022/06/15 03:32:45;;;;;;;;;;;22.00;46.30;;;;;;5166543;27;20365;-57
2022/06/15 03:35:11;;;;;;;;;;;22.00;46.20;;;;;;5162361;27;20324;-58
2022/06/15 03:37:40;;;;;;;;;;;22.00;46.00;;;;;;5162956;27;19983;-56
2022/06/15 03:40:08;;;;;;;;;;;22.00;46.00;;;;;;5168541;27;19936;-57
2022/06/15 03:42:33;;;;;;;;;;;22.00;45.90;;;;;;5163206;27;20439;-55
2022/06/15 03:44:59;;;;;;;;;;;22.00;45.80;;;;;;5150117;27;19927;-57
2022/06/15 03:47:25;;;;;;;;;;;22.10;45.70;;;;;;5163234;27;20311;-57
2022/06/15 03:49:51;;;;;;;;;;;22.20;45.40;;;;;;5161168;27;20021;-56
2022/06/15 03:52:18;;;;;;;;;;;22.30;45.30;;;;;;5167304;27;19958;-59
2022/06/15 03:54:44;;;;;;;;;;;22.20;45.40;;;;;;5162353;27;19923;-57
2022/06/15 03:57:13;;;;;;;;;;;22.20;45.50;;;;;;5162876;27;20283;-58
2022/06/15 03:59:39;;;;;;;;;;;22.20;45.50;;;;;;5149725;27;19923;-58
2022/06/15 04:02:05;;;;;;;;;;;22.20;45.40;;;;;;5162639;27;19991;-57
2022/06/15 04:04:31;;;;;;;;;;;22.20;45.50;;;;;;5167046;27;19923;-54
2022/06/15 04:06:57;;;;;;;;;;;22.20;45.20;;;;;;5163761;27;19931;-57
2022/06/15 04:09:22;;;;;;;;;;;22.20;45.10;;;;;;5160272;27;19927;-55
2022/06/15 04:14:47;;;;;;;;;;;22.30;45.10;;;;;;5119550;27;20304;-58
2022/06/15 04:17:13;;;;;;;;;;;22.40;45.00;;;;;;5162564;27;19927;-57
2022/06/15 04:19:38;;;;;;;;;;;22.40;45.00;;;;;;5168147;27;20405;-54
2022/06/15 04:22:04;;;;;;;;;;;21.60;46.80;;;;;;5162562;27;19940;-56
2022/06/15 04:24:30;;;;;;;;;;;21.30;46.80;;;;;;5162547;27;19923;-58
2022/06/15 04:26:56;;;;;;;;;;;21.30;48.10;;;;;;5147229;27;20378;-58
2022/06/15 04:29:22;;;;;;;;;;;21.60;47.70;;;;;;5161698;27;19976;-56
2022/06/15 04:31:48;;;;;;;;;;;21.60;47.40;;;;;;5164187;27;19930;-56
2022/06/15 04:34:14;;;;;;;;;;;21.50;47.70;;;;;;5153518;27;19933;-58
2022/06/15 04:36:40;;;;;;;;;;;21.70;47.50;;;;;;5166665;27;20368;-57
2022/06/15 04:39:06;;;;;;;;;;;21.50;47.80;;;;;;5172332;27;20279;-60
2022/06/15 04:41:33;;;;;;;;;;;21.60;47.70;;;;;;5166685;27;20433;-59
2022/06/15 04:43:59;;;;;;;;;;;21.50;47.80;;;;;;5165624;27;19929;-59
2022/06/15 04:46:24;;;;;;;;;;;21.60;47.60;;;;;;5169974;27;19930;-59
2022/06/15 04:48:50;;;;;;;;;;;21.60;47.70;;;;;;5165765;27;19927;-58
2022/06/15 04:51:17;;;;;;;;;;;21.60;47.70;;;;;;5166416;27;19923;-59
2022/06/15 04:53:43;;;;;;;;;;;21.60;47.60;;;;;;5171923;27;19923;-60
2022/06/15 04:56:09;;;;;;;;;;;21.60;47.70;;;;;;5166502;27;19944;-58
2022/06/15 04:58:35;;;;;;;;;;;21.60;47.50;;;;;;5172098;27;19927;-59
2022/06/15 05:01:01;;;;;;;;;;;21.70;47.50;;;;;;5147664;27;20005;-60
2022/06/15 05:03:26;;;;;;;;;;;21.70;47.40;;;;;;5164631;27;19934;-59
2022/06/15 05:05:55;;;;;;;;;;;21.70;47.50;;;;;;5170795;27;20021;-59
2022/06/15 05:08:21;;;;;;;;;;;21.60;47.60;;;;;;5165990;27;20069;-60
2022/06/15 05:10:47;;;;;;;;;;;21.60;47.50;;;;;;5145386;27;19927;-58
2022/06/15 05:13:13;;;;;;;;;;;21.70;47.40;;;;;;5171641;27;19929;-60
2022/06/15 05:15:39;;;;;;;;;;;21.60;47.50;;;;;;5166302;27;19922;-59
2022/06/15 05:18:05;;;;;;;;;;;21.50;47.60;;;;;;5169971;27;19926;-59
2022/06/15 05:20:31;;;;;;;;;;;21.70;47.30;;;;;;5167330;27;19936;-56
2022/06/15 05:22:56;;;;;;;;;;;21.70;47.00;;;;;;5164123;27;19927;-59
2022/06/15 05:25:23;;;;;;;;;;;21.70;46.70;;;;;;5170561;27;19928;-58
2022/06/15 05:27:49;;;;;;;;;;;21.80;46.50;;;;;;5165917;27;20959;-58
2022/06/15 05:30:14;;;;;;;;;;;21.80;46.40;;;;;;5165943;27;19923;-60
2022/06/15 05:32:40;;;;;;;;;;;21.80;46.40;;;;;;5171639;27;19987;-59
2022/06/15 05:35:06;;;;;;;;;;;21.80;46.70;;;;;;5166366;27;19938;-60
2022/06/15 05:37:32;;;;;;;;;;;21.70;46.90;;;;;;5167205;27;19927;-59
2022/06/15 05:39:58;;;;;;;;;;;21.80;47.00;;;;;;5168595;27;19922;-59
2022/06/15 05:42:27;;;;;;;;;;;21.80;46.80;;;;;;5163900;27;20271;-59
2022/06/15 05:44:54;;;;;;;;;;;21.80;46.80;;;;;;5170478;27;20326;-59
2022/06/15 05:47:19;;;;;;;;;;;21.80;46.80;;;;;;5165920;27;19944;-57
2022/06/15 05:49:45;;;;;;;;;;;21.80;46.80;;;;;;5165802;27;19930;-59
2022/06/15 05:52:11;;;;;;;;;;;21.80;46.90;;;;;;5170784;27;19922;-60
2022/06/15 05:54:37;;;;;;;;;;;21.80;47.30;;;;;;5165502;27;20386;-58
2022/06/15 05:57:08;;;;;;;;;;;21.80;47.40;;;;;;5165571;27;20481;-59
2022/06/15 05:59:34;;;;;;;;;;;21.80;47.30;;;;;;5168426;27;20014;-59
2022/06/15 06:02:00;;;;;;;;;;;21.90;47.10;;;;;;5165096;27;19923;-58
2022/06/15 06:04:26;;;;;;;;;;;21.90;47.00;;;;;;5170394;27;19979;-59
2022/06/15 06:06:51;;;;;;;;;;;22.00;47.00;;;;;;5165533;27;19927;-60
2022/06/15 06:09:17;;;;;;;;;;;22.00;47.10;;;;;;5165457;27;19931;-59
2022/06/15 06:11:43;;;;;;;;;;;22.00;47.00;;;;;;5170731;27;20289;-60
2022/06/15 06:14:08;;;;;;;;;;;21.80;47.30;;;;;;5165383;27;20285;-60
2022/06/15 06:16:34;;;;;;;;;;;21.90;47.40;;;;;;5145550;27;19991;-59
2022/06/15 06:19:00;;;;;;;;;;;21.90;47.30;;;;;;5169081;27;19923;-59
2022/06/15 06:21:26;;;;;;;;;;;21.80;46.90;;;;;;5164887;27;19923;-59
2022/06/15 06:23:52;;;;;;;;;;;21.30;46.70;;;;;;5169318;27;20393;-58
2022/06/15 06:26:21;;;;;;;;;;;21.30;46.70;;;;;;5147956;27;19933;-59
2022/06/15 06:28:47;;;;;;;;;;;21.40;47.80;;;;;;5165206;27;20021;-59
2022/06/15 06:31:13;;;;;;;;;;;21.70;48.40;;;;;;5169783;27;19923;-59
2022/06/15 06:33:38;;;;;;;;;;;21.80;48.40;;;;;;5146307;27;19923;-59
2022/06/15 06:36:05;;;;;;;;;;;21.80;48.40;;;;;;5162765;27;20188;-58
2022/06/15 06:38:31;;;;;;;;;;;21.80;48.50;;;;;;5150695;27;19927;-59
2022/06/15 06:40:58;;;;;;;;;;;21.80;48.40;;;;;;5164737;27;19922;-59
2022/06/15 06:43:24;;;;;;;;;;;21.80;48.20;;;;;;5146698;27;20009;-56
2022/06/15 06:45:49;;;;;;;;;;;21.80;48.20;;;;;;5169854;27;20286;-58
2022/06/15 06:48:15;;;;;;;;;;;21.90;47.90;;;;;;5165492;27;19990;-57
2022/06/15 06:50:41;;;;;;;;;;;22.00;47.40;;;;;;5169780;27;19930;-56
2022/06/15 06:53:07;;;;;;;;;;;22.00;47.30;;;;;;5144466;27;20134;-57
2022/06/15 06:55:33;;;;;;;;;;;22.00;47.60;;;;;;5163372;27;19923;-58
2022/06/15 06:57:59;;;;;;;;;;;22.00;47.60;;;;;;5169255;27;19933;-58
2022/06/15 07:00:25;;;;;;;;;;;22.10;47.40;;;;;;5164746;27;19927;-58
2022/06/15 07:02:51;;;;;;;;;;;22.10;47.30;;;;;;5146811;27;20068;-56
2022/06/15 07:05:17;;;;;;;;;;;22.10;47.20;;;;;;5169871;27;19959;-51
2022/06/15 07:07:43;;;;;;;;;;;21.00;49.30;;;;;;5164991;27;20164;-49
2022/06/15 07:10:09;;;;;;;;;;;20.10;51.50;;;;;;5169766;27;19966;-53
2022/06/15 07:12:36;;;;;;;;;;;20.80;51.30;;;;;;5166023;27;20357;-49
2022/06/15 07:15:06;;;;;;;;;;;21.30;49.70;;;;;;5146282;27;20096;-52
2022/06/15 07:17:31;;;;;;;;;;;21.60;49.00;;;;;;5169780;27;19926;-49
2022/06/15 07:19:57;;;;;;;;;;;21.80;48.40;;;;;;5166072;27;19945;-53
2022/06/15 07:22:23;;;;;;;;;;;21.90;48.10;;;;;;5165702;27;20325;-53
2022/06/15 07:24:49;;;;;;;;;;;22.00;47.80;;;;;;5169778;27;19922;-52
2022/06/15 07:27:15;;;;;;;;;;;22.00;47.80;;;;;;5146941;27;19930;-52
2022/06/15 07:29:41;;;;;;;;;;;22.00;47.50;;;;;;5167621;27;20022;-53
2022/06/15 07:32:07;;;;;;;;;;;22.00;47.80;;;;;;5165648;27;19922;-51
2022/06/15 07:34:33;;;;;;;;;;;22.00;47.90;;;;;;5165126;27;20024;-52
2022/06/15 07:36:59;;;;;;;;;;;22.10;47.90;;;;;;5168981;27;20097;-49
2022/06/15 07:39:28;;;;;;;;;;;22.10;47.70;;;;;;5165286;27;19923;-52
2022/06/15 07:41:54;;;;;;;;;;;22.20;47.50;;;;;;5164444;27;19974;-46
2022/06/15 07:44:20;;;;;;;;;;;22.10;47.80;;;;;;5168733;27;20030;-47
2022/06/15 07:46:46;;;;;;;;;;;20.70;50.90;;;;;;5163474;27;20378;-49
2022/06/15 07:51:58;;;;;;;;;;;21.30;50.80;;;;;;5168301;27;20017;-48
2022/06/15 07:54:24;;;;;;;;;;;21.80;49.10;;;;;;5164614;27;20383;-49
2022/06/15 07:56:50;;;;;;;;;;;21.80;48.90;;;;;;5166842;27;19923;-54
2022/06/15 07:59:16;;;;;;;;;;;22.00;48.40;;;;;;5167027;27;20025;-49
2022/06/15 08:01:42;;;;;;;;;;;22.00;48.20;;;;;;5164455;27;19942;-49
2022/06/15 08:04:08;;;;;;;;;;;22.00;48.00;;;;;;5168869;27;20465;-49
2022/06/15 08:06:34;;;;;;;;;;;22.10;47.80;;;;;;5162515;27;19934;-48
2022/06/15 08:09:00;;;;;;;;;;;22.20;47.50;;;;;;5143847;27;19974;-49
2022/06/15 08:11:26;;;;;;;;;;;22.10;47.80;;;;;;5168077;27;19929;-46
2022/06/15 08:13:52;;;;;;;;;;;22.20;47.50;;;;;;5144419;27;19927;-46
2022/06/15 08:16:18;;;;;;;;;;;21.30;48.90;;;;;;5144322;27;20382;-54
2022/06/15 08:18:44;;;;;;;;;;;20.30;51.40;;;;;;5168217;27;20005;-46
2022/06/15 08:21:11;;;;;;;;;;;20.10;52.00;;;;;;5146363;27;20288;-46
2022/06/15 08:23:37;;;;;;;;;;;20.80;52.20;;;;;;5150356;27;20462;-46
2022/06/15 08:26:04;;;;;;;;;;;21.90;49.60;;;;;;5160555;27;19923;-45
2022/06/15 08:28:33;;;;;;;;;;;21.80;49.00;;;;;;5125630;27;21313;-46
2022/06/15 08:30:59;;;;;;;;;;;21.00;50.70;;;;;;5149178;27;19931;-48
2022/06/15 08:33:24;;;;;;;;;;;20.90;51.30;;;;;;5162961;27;19927;-46
2022/06/15 08:35:50;;;;;;;;;;;20.90;51.50;;;;;;5163119;27;19935;-47
2022/06/15 08:38:17;;;;;;;;;;;20.80;51.50;;;;;;5168007;27;19923;-47
2022/06/15 08:40:45;;;;;;;;;;;20.50;52.10;;;;;;5162461;27;19922;-48
2022/06/15 08:43:17;;;;;;;;;;;20.80;51.20;;;;;;5147857;27;20006;-52
2022/06/15 08:45:47;;;;;;;;;;;20.70;51.50;;;;;;5145563;27;19927;-47
2022/06/15 08:48:23;;;;;;;;;;;20.60;52.00;;;;;;5143521;27;20017;-47
2022/06/15 08:51:00;;;;;;;;;;;20.80;51.40;;;;;;5167466;27;19929;-46
2022/06/15 08:53:40;;;;;;;;;;;20.50;52.00;;;;;;5146239;27;19970;-49
2022/06/15 08:56:06;;;;;;;;;;;20.60;51.50;;;;;;5144155;27;20367;-45
2022/06/15 08:58:41;;;;;;;;;;;20.60;51.90;;;;;;5167622;27;20009;-48
2022/06/15 09:01:07;;;;;;;;;;;20.80;51.60;;;;;;5144030;27;20352;-47
2022/06/15 09:03:39;;;;;;;;;;;20.60;52.00;;;;;;5160835;27;19947;-48
2022/06/15 09:06:07;;;;;;;;;;;20.60;51.80;;;;;;5167080;27;19937;-45
2022/06/15 09:08:56;;;;;;;;;;;20.60;51.80;;;;;;5162489;27;20403;-46
2022/06/15 09:12:49;;;;;;;;;;;20.50;52.10;;;;;;5162687;27;19927;-45
2022/06/15 09:14:47;;;;;;;;;;;20.50;52.40;;;;;;5057735;28;19931;-48
2022/06/15 09:17:18;;;;;;;;;;;20.40;52.80;;;;;;5143433;27;19933;-48
2022/06/15 09:19:45;;;;;;;;;;;20.50;52.60;;;;;;5145211;27;19934;-46
2022/06/15 09:22:11;;;;;;;;;;;20.50;52.90;;;;;;5145944;27;19932;-47
2022/06/15 09:24:48;;;;;;;;;;;20.50;52.90;;;;;;5170833;27;20377;-47
2022/06/15 09:27:19;;;;;;;;;;;20.50;52.60;;;;;;5147938;27;19940;-48
2022/06/15 09:29:47;;;;;;;;;;;20.50;52.30;;;;;;5168416;27;19931;-56
2022/06/15 09:32:14;;;;;;;;;;;20.50;52.60;;;;;;5170326;27;19987;-48
2022/06/15 09:34:45;;;;;;;;;;;20.50;52.50;;;;;;5165957;27;19929;-48
2022/06/15 09:37:13;;;;;;;;;;;20.50;52.70;;;;;;5171142;27;19927;-46
2022/06/15 09:39:39;;;;;;;;;;;20.50;52.60;;;;;;5144986;27;19943;-47
2022/06/15 09:42:11;;;;;;;;;;;20.50;52.50;;;;;;5165252;27;19927;-46
2022/06/15 09:44:40;;;;;;;;;;;20.50;52.50;;;;;;5170442;27;20107;-47
2022/06/15 09:47:06;;;;;;;;;;;20.40;52.80;;;;;;5165914;27;19923;-47
2022/06/15 09:49:39;;;;;;;;;;;20.50;52.70;;;;;;5166001;27;20198;-51
2022/06/15 09:52:07;;;;;;;;;;;20.50;52.60;;;;;;5170858;27;19938;-46
2022/06/15 09:54:49;;;;;;;;;;;20.50;52.50;;;;;;5147048;27;19974;-47
2022/06/15 09:57:15;;;;;;;;;;;20.40;52.50;;;;;;5164324;27;19940;-47
2022/06/15 09:59:41;;;;;;;;;;;20.50;52.10;;;;;;5169563;27;19982;-47
2022/06/15 10:02:15;;;;;;;;;;;20.50;52.20;;;;;;5165228;27;19930;-50
2022/06/15 10:04:43;;;;;;;;;;;20.30;52.70;;;;;;5166031;27;20457;-52
2022/06/15 10:07:11;;;;;;;;;;;20.30;52.60;;;;;;5152258;27;19927;-47
2022/06/15 10:09:37;;;;;;;;;;;20.40;52.70;;;;;;5145865;27;19926;-47
2022/06/15 10:15:07;;;;;;;;;;;20.60;52.60;;;;;;5169209;27;19922;-46
2022/06/15 10:17:34;;;;;;;;;;;20.50;53.00;;;;;;5163779;27;20029;-47
2022/06/15 10:20:00;;;;;;;;;;;20.50;53.00;;;;;;5149731;27;20013;-52
2022/06/15 10:22:27;;;;;;;;;;;20.50;52.50;;;;;;5166633;27;19965;-46
2022/06/15 10:24:53;;;;;;;;;;;20.50;52.90;;;;;;5145197;27;19964;-50
2022/06/15 10:27:28;;;;;;;;;;;20.50;52.50;;;;;;5170377;27;19923;-46
2022/06/15 10:30:06;;;;;;;;;;;20.60;52.50;;;;;;5164734;27;20457;-47
2022/06/15 10:32:32;;;;;;;;;;;20.40;52.90;;;;;;5165040;27;20429;-50
2022/06/15 10:35:00;;;;;;;;;;;20.60;52.50;;;;;;5167789;27;19980;-46
2022/06/15 10:37:28;;;;;;;;;;;20.50;52.80;;;;;;5164412;27;20056;-46
2022/06/15 10:39:55;;;;;;;;;;;20.70;52.20;;;;;;5164846;27;19922;-50
2022/06/15 10:42:38;;;;;;;;;;;20.60;52.50;;;;;;5169941;27;20060;-48
2022/06/15 10:45:05;;;;;;;;;;;20.60;52.40;;;;;;5144078;27;20017;-46
2022/06/15 10:47:31;;;;;;;;;;;20.40;52.30;;;;;;5146355;27;20017;-52
2022/06/15 10:50:01;;;;;;;;;;;20.50;51.70;;;;;;5169678;27;19946;-46
2022/06/15 10:52:37;;;;;;;;;;;20.50;51.30;;;;;;5144799;27;19947;-48
2022/06/15 11:03:40;;;;;;;;;;;20.50;48.50;;;;;;5164883;27;20381;-46
2022/06/15 11:06:06;;;;;;;;;;;20.60;47.80;;;;;;5169600;27;19922;-47
2022/06/15 11:08:32;;;;;;;;;;;20.70;46.90;;;;;;5146257;27;19930;-50
2022/06/15 11:11:18;;;;;;;;;;;20.80;46.60;;;;;;5162888;27;19962;-48
2022/06/15 11:13:51;;;;;;;;;;;20.70;46.70;;;;;;5168591;27;20014;-48
2022/06/15 11:19:20;;;;;;;;;;;20.60;48.10;;;;;;5164618;27;20417;-47
2022/06/15 11:21:52;;;;;;;;;;;20.70;48.30;;;;;;5169330;27;19935;-47
2022/06/15 11:24:35;;;;;;;;;;;20.70;48.20;;;;;;5164823;27;19922;-47
2022/06/15 11:27:11;;;;;;;;;;;20.70;47.90;;;;;;5164435;27;19922;-46
2022/06/15 11:29:39;;;;;;;;;;;20.60;47.80;;;;;;5146285;27;19931;-50
2022/06/15 11:32:23;;;;;;;;;;;20.80;47.60;;;;;;5145610;27;19975;-45
2022/06/15 11:34:52;;;;;;;;;;;20.60;48.40;;;;;;5163839;27;20487;-47
2022/06/15 11:37:19;;;;;;;;;;;20.80;47.70;;;;;;5168956;27;19926;-46
2022/06/15 11:39:46;;;;;;;;;;;20.80;47.50;;;;;;5164037;27;19923;-47
2022/06/15 11:42:13;;;;;;;;;;;20.80;47.50;;;;;;5163198;27;20297;-47
2022/06/15 11:44:40;;;;;;;;;;;20.90;47.50;;;;;;5150368;27;19930;-47
2022/06/15 11:47:21;;;;;;;;;;;20.80;47.40;;;;;;5163052;27;19922;-51
2022/06/15 11:49:55;;;;;;;;;;;20.90;46.80;;;;;;5144760;27;20017;-47
2022/06/15 11:52:33;;;;;;;;;;;20.80;46.80;;;;;;5149683;27;20490;-49
2022/06/15 11:55:07;;;;;;;;;;;21.00;46.40;;;;;;5145024;27;20029;-48
2022/06/15 11:57:32;;;;;;;;;;;21.00;46.40;;;;;;5164046;27;20482;-46
2022/06/15 12:00:07;;;;;;;;;;;20.90;46.10;;;;;;5168997;27;19930;-47
2022/06/15 12:03:06;;;;;;;;;;;20.80;46.20;;;;;;5164330;27;20301;-52
2022/06/15 12:05:43;;;;;;;;;;;20.90;46.10;;;;;;5105255;27;20398;-46
2022/06/15 12:08:08;;;;;;;;;;;21.00;45.80;;;;;;5167363;27;20013;-48
2022/06/15 12:10:39;;;;;;;;;;;20.90;46.00;;;;;;5164152;27;19923;-48
2022/06/15 12:13:05;;;;;;;;;;;21.20;45.90;;;;;;5164043;27;19922;-46
2022/06/15 12:15:31;;;;;;;;;;;21.00;46.60;;;;;;5168647;27;19935;-47
2022/06/15 12:18:15;;;;;;;;;;;21.10;46.80;;;;;;5164244;27;19929;-47
2022/06/15 12:20:49;;;;;;;;;;;21.00;47.30;;;;;;5163604;27;19927;-48
2022/06/15 12:23:20;;;;;;;;;;;21.00;47.50;;;;;;5168045;27;19923;-47
2022/06/15 12:25:52;;;;;;;;;;;20.90;47.10;;;;;;5143712;27;19922;-49
2022/06/15 12:28:24;;;;;;;;;;;21.00;47.10;;;;;;5163570;27;19923;-49
2022/06/15 12:30:50;;;;;;;;;;;21.20;46.70;;;;;;5168386;27;19962;-49
2022/06/15 12:33:18;;;;;;;;;;;21.10;46.70;;;;;;5164462;27;19946;-48
2022/06/15 12:35:52;;;;;;;;;;;21.10;46.90;;;;;;5164144;27;20416;-47
2022/06/15 12:38:43;;;;;;;;;;;21.20;46.50;;;;;;5168709;27;19938;-50
2022/06/15 12:42:09;;;;;;;;;;;21.10;46.60;;;;;;5164089;27;19923;-46
2022/06/15 12:43:56;;;;;;;;;;;21.00;46.70;;;;;;5162500;27;19923;-47
2022/06/15 12:46:21;;;;;;;;;;;21.10;46.60;;;;;;5149434;27;19968;-49
2022/06/15 12:49:06;;;;;;;;;;;21.10;46.20;;;;;;5164080;27;19926;-47
2022/06/15 12:51:34;;;;;;;;;;;21.10;46.40;;;;;;5164261;27;20013;-47
2022/06/15 12:54:04;;;;;;;;;;;21.00;46.60;;;;;;5172626;27;19922;-48
2022/06/15 12:56:33;;;;;;;;;;;21.00;46.60;;;;;;5150824;27;20436;-50
2022/06/15 12:59:05;;;;;;;;;;;20.90;47.00;;;;;;5169428;27;19937;-48
2022/06/15 13:01:32;;;;;;;;;;;21.00;46.80;;;;;;5171084;27;19927;-50
2022/06/15 13:04:19;;;;;;;;;;;21.00;47.00;;;;;;5168239;27;20296;-46
2022/06/15 13:06:45;;;;;;;;;;;20.90;47.00;;;;;;5168495;27;19926;-49
2022/06/15 13:09:20;;;;;;;;;;;21.10;46.70;;;;;;5172398;27;19947;-51
2022/06/15 13:11:57;;;;;;;;;;;21.00;47.00;;;;;;5150215;27;20025;-48
2022/06/15 13:14:23;;;;;;;;;;;21.00;47.20;;;;;;5168398;27;20378;-50
2022/06/15 13:17:15;;;;;;;;;;;20.90;47.40;;;;;;5153416;27;19923;-49
2022/06/15 13:19:45;;;;;;;;;;;21.10;46.80;;;;;;5157523;27;19948;-54
2022/06/15 13:22:21;;;;;;;;;;;20.90;47.20;;;;;;5166845;27;19965;-49
2022/06/15 13:24:57;;;;;;;;;;;20.90;47.00;;;;;;5171278;27;19923;-48
2022/06/15 13:27:24;;;;;;;;;;;21.10;47.00;;;;;;5147517;27;19951;-54
2022/06/15 13:29:51;;;;;;;;;;;20.90;47.50;;;;;;5146979;27;20302;-50
2022/06/15 13:32:37;;;;;;;;;;;21.10;47.20;;;;;;5171766;27;19926;-49
2022/06/15 13:35:19;;;;;;;;;;;21.00;47.80;;;;;;5148136;27;19927;-48
2022/06/15 13:38:02;;;;;;;;;;;21.00;48.20;;;;;;5165528;27;20280;-50
2022/06/15 13:40:48;;;;;;;;;;;21.10;47.90;;;;;;5170502;27;20430;-47
2022/06/15 13:43:14;;;;;;;;;;;21.10;47.90;;;;;;5145716;27;20206;-49
2022/06/15 13:45:41;;;;;;;;;;;21.00;48.20;;;;;;5166901;27;19923;-47
2022/06/15 13:48:12;;;;;;;;;;;21.10;48.10;;;;;;5171030;27;20025;-48
2022/06/15 13:50:43;;;;;;;;;;;20.90;48.60;;;;;;5148677;27;19947;-47
2022/06/15 13:53:35;;;;;;;;;;;21.20;48.10;;;;;;5148047;27;19929;-50
2022/06/15 13:56:13;;;;;;;;;;;21.10;48.20;;;;;;5129489;27;20473;-52
2022/06/15 13:58:48;;;;;;;;;;;21.20;47.80;;;;;;5146805;27;19935;-54
2022/06/15 14:01:24;;;;;;;;;;;21.10;47.90;;;;;;5165862;27;19927;-49
2022/06/15 14:03:55;;;;;;;;;;;21.20;47.90;;;;;;5151037;27;20062;-51
2022/06/15 14:06:26;;;;;;;;;;;21.20;47.60;;;;;;5147844;27;19923;-48
2022/06/15 14:09:03;;;;;;;;;;;21.20;47.60;;;;;;5166642;27;19982;-50
2022/06/15 14:11:35;;;;;;;;;;;21.20;47.60;;;;;;5152249;27;19926;-50
2022/06/15 14:14:07;;;;;;;;;;;21.30;47.70;;;;;;5164967;27;19960;-49
2022/06/15 14:16:44;;;;;;;;;;;21.30;47.60;;;;;;5164675;27;20482;-48
2022/06/15 14:19:29;;;;;;;;;;;21.30;47.50;;;;;;5170252;27;19938;-47
2022/06/15 14:22:02;;;;;;;;;;;21.30;47.50;;;;;;5165554;27;19945;-49
2022/06/15 14:24:28;;;;;;;;;;;21.10;47.80;;;;;;5165434;27;19970;-49
2022/06/15 14:26:57;;;;;;;;;;;21.30;47.80;;;;;;5170409;27;19933;-51
2022/06/15 14:29:22;;;;;;;;;;;21.10;48.40;;;;;;5165505;27;19922;-49
2022/06/15 14:31:52;;;;;;;;;;;21.30;48.50;;;;;;5164904;27;19923;-48
2022/06/15 14:34:19;;;;;;;;;;;21.20;48.40;;;;;;5168253;27;19922;-53
2022/06/15 14:36:54;;;;;;;;;;;21.10;48.90;;;;;;5164472;27;20352;-49
2022/06/15 14:39:21;;;;;;;;;;;21.30;48.60;;;;;;5168746;27;20429;-54
2022/06/15 14:41:50;;;;;;;;;;;21.30;48.30;;;;;;5166875;27;19923;-49
2022/06/15 14:44:17;;;;;;;;;;;21.20;48.40;;;;;;5146585;27;20304;-51
2022/06/15 14:46:45;;;;;;;;;;;21.20;48.60;;;;;;5170064;27;19937;-47
2022/06/15 14:49:12;;;;;;;;;;;21.20;48.90;;;;;;5160707;27;20879;-50